sensor_id;sensor_type;location;lat;lon;timestamp;P1;durP1;ratioP1;P2;durP2;ratioP2
8036;SDS011;4061;51.360;7.340;2022-10-31T00:00:58;7.68;;;3.90;;
8036;SDS011;4061;51.360;7.340;2022-10-31T00:03:25;7.65;;;4.00;;
8036;SDS011;4061;51.360;7.340;2022-10-31T00:05:53;10.48;;;4.50;;
8036;SDS011;4061;51.360;7.340;2022-10-31T00:08:20;14.90;;;3.70;;
8036;SDS011;4061;51.360;7.340;2022-10-31T00:10:47;9.07;;;4.38;;
8036;SDS011;4061;51.360;7.340;2022-10-31T00:13:14;12.75;;;4.35;;
8036;SDS011;4061;51.360;7.340;2022-10-31T00:15:43;13.55;;;4.55;;
8036;SDS011;4061;51.360;7.340;2022-10-31T00:18:10;9.48;;;4.53;;
8036;SDS011;4061;51.360;7.340;2022-10-31T00:20:37;16.40;;;4.95;;
8036;SDS011;4061;51.360;7.340;2022-10-31T00:23:05;14.32;;;3.80;;
8036;SDS011;4061;51.360;7.340;2022-10-31T00:25:33;8.40;;;4.90;;
8036;SDS011;4061;51.360;7.340;2022-10-31T00:28:00;8.85;;;4.25;;
8036;SDS011;4061;51.360;7.340;2022-10-31T00:30:27;12.57;;;4.57;;
8036;SDS011;4061;51.360;7.340;2022-10-31T00:32:56;14.40;;;5.13;;
8036;SDS011;4061;51.360;7.340;2022-10-31T00:35:23;14.25;;;5.05;;
8036;SDS011;4061;51.360;7.340;2022-10-31T00:37:51;12.15;;;4.38;;
8036;SDS011;4061;51.360;7.340;2022-10-31T00:40:18;11.32;;;4.65;;
8036;SDS011;4061;51.360;7.340;2022-10-31T00:42:45;10.18;;;4.72;;
8036;SDS011;4061;51.360;7.340;2022-10-31T00:45:13;20.58;;;4.93;;
8036;SDS011;4061;51.360;7.340;2022-10-31T00:47:40;12.73;;;4.90;;
8036;SDS011;4061;51.360;7.340;2022-10-31T00:50:08;10.63;;;4.78;;
8036;SDS011;4061;51.360;7.340;2022-10-31T00:52:36;12.35;;;4.32;;
8036;SDS011;4061;51.360;7.340;2022-10-31T00:55:03;11.88;;;4.78;;
8036;SDS011;4061;51.360;7.340;2022-10-31T00:57:30;11.45;;;4.55;;
8036;SDS011;4061;51.360;7.340;2022-10-31T00:59:57;11.02;;;4.90;;
8036;SDS011;4061;51.360;7.340;2022-10-31T01:02:24;9.82;;;3.97;;
8036;SDS011;4061;51.360;7.340;2022-10-31T01:04:52;11.18;;;3.88;;
8036;SDS011;4061;51.360;7.340;2022-10-31T01:07:20;10.82;;;4.13;;
8036;SDS011;4061;51.360;7.340;2022-10-31T01:09:47;16.27;;;4.55;;
8036;SDS011;4061;51.360;7.340;2022-10-31T01:12:14;9.65;;;4.60;;
8036;SDS011;4061;51.360;7.340;2022-10-31T01:14:42;15.07;;;4.57;;
8036;SDS011;4061;51.360;7.340;2022-10-31T01:17:10;12.45;;;5.07;;
8036;SDS011;4061;51.360;7.340;2022-10-31T01:19:37;6.40;;;3.72;;
8036;SDS011;4061;51.360;7.340;2022-10-31T01:22:04;6.68;;;3.92;;
8036;SDS011;4061;51.360;7.340;2022-10-31T01:24:33;11.82;;;4.70;;
8036;SDS011;4061;51.360;7.340;2022-10-31T01:27:00;9.35;;;4.70;;
8036;SDS011;4061;51.360;7.340;2022-10-31T01:29:27;10.32;;;4.32;;
8036;SDS011;4061;51.360;7.340;2022-10-31T01:31:54;10.23;;;4.85;;
8036;SDS011;4061;51.360;7.340;2022-10-31T01:34:21;9.18;;;3.95;;
8036;SDS011;4061;51.360;7.340;2022-10-31T01:36:48;12.48;;;4.82;;
8036;SDS011;4061;51.360;7.340;2022-10-31T01:39:17;9.40;;;5.03;;
8036;SDS011;4061;51.360;7.340;2022-10-31T01:41:46;11.20;;;3.88;;
8036;SDS011;4061;51.360;7.340;2022-10-31T01:47:01;7.82;;;4.13;;
8036;SDS011;4061;51.360;7.340;2022-10-31T01:49:31;6.85;;;3.78;;
8036;SDS011;4061;51.360;7.340;2022-10-31T01:52:01;7.35;;;4.13;;
8036;SDS011;4061;51.360;7.340;2022-10-31T01:54:30;10.75;;;3.55;;
8036;SDS011;4061;51.360;7.340;2022-10-31T01:57:00;13.55;;;4.57;;
8036;SDS011;4061;51.360;7.340;2022-10-31T01:59:29;9.48;;;4.70;;
8036;SDS011;4061;51.360;7.340;2022-10-31T02:01:57;8.73;;;4.35;;
8036;SDS011;4061;51.360;7.340;2022-10-31T02:04:24;8.43;;;4.38;;
8036;SDS011;4061;51.360;7.340;2022-10-31T02:06:53;8.95;;;4.93;;
8036;SDS011;4061;51.360;7.340;2022-10-31T02:09:21;10.05;;;5.55;;
8036;SDS011;4061;51.360;7.340;2022-10-31T02:11:49;11.85;;;5.20;;
8036;SDS011;4061;51.360;7.340;2022-10-31T02:14:19;10.88;;;5.80;;
8036;SDS011;4061;51.360;7.340;2022-10-31T02:16:48;12.05;;;5.30;;
8036;SDS011;4061;51.360;7.340;2022-10-31T02:19:16;18.30;;;5.68;;
8036;SDS011;4061;51.360;7.340;2022-10-31T02:21:46;16.73;;;5.30;;
8036;SDS011;4061;51.360;7.340;2022-10-31T02:24:29;9.60;;;5.13;;
8036;SDS011;4061;51.360;7.340;2022-10-31T02:29:53;13.75;;;5.63;;
8036;SDS011;4061;51.360;7.340;2022-10-31T02:32:25;12.15;;;4.97;;
8036;SDS011;4061;51.360;7.340;2022-10-31T02:34:56;16.63;;;5.05;;
8036;SDS011;4061;51.360;7.340;2022-10-31T02:37:25;14.77;;;5.22;;
8036;SDS011;4061;51.360;7.340;2022-10-31T02:39:56;10.98;;;4.10;;
8036;SDS011;4061;51.360;7.340;2022-10-31T02:42:28;7.90;;;3.97;;
8036;SDS011;4061;51.360;7.340;2022-10-31T02:44:58;9.75;;;5.55;;
8036;SDS011;4061;51.360;7.340;2022-10-31T02:47:29;9.73;;;4.85;;
8036;SDS011;4061;51.360;7.340;2022-10-31T02:49:59;7.75;;;4.47;;
8036;SDS011;4061;51.360;7.340;2022-10-31T02:52:28;10.80;;;4.57;;
8036;SDS011;4061;51.360;7.340;2022-10-31T02:54:55;8.38;;;4.05;;
8036;SDS011;4061;51.360;7.340;2022-10-31T02:57:24;8.20;;;4.90;;
8036;SDS011;4061;51.360;7.340;2022-10-31T02:59:52;9.23;;;4.32;;
8036;SDS011;4061;51.360;7.340;2022-10-31T03:02:25;17.88;;;5.53;;
8036;SDS011;4061;51.360;7.340;2022-10-31T03:05:05;15.68;;;5.47;;
8036;SDS011;4061;51.360;7.340;2022-10-31T03:07:39;20.25;;;6.80;;
8036;SDS011;4061;51.360;7.340;2022-10-31T03:10:10;15.88;;;6.55;;
8036;SDS011;4061;51.360;7.340;2022-10-31T03:12:42;20.48;;;6.75;;
8036;SDS011;4061;51.360;7.340;2022-10-31T03:15:13;17.95;;;6.05;;
8036;SDS011;4061;51.360;7.340;2022-10-31T03:17:44;14.20;;;5.75;;
8036;SDS011;4061;51.360;7.340;2022-10-31T03:20:15;14.43;;;5.68;;
8036;SDS011;4061;51.360;7.340;2022-10-31T03:22:44;12.95;;;6.65;;
8036;SDS011;4061;51.360;7.340;2022-10-31T03:25:12;16.98;;;6.15;;
8036;SDS011;4061;51.360;7.340;2022-10-31T03:27:39;16.08;;;6.28;;
8036;SDS011;4061;51.360;7.340;2022-10-31T03:30:09;12.88;;;5.97;;
8036;SDS011;4061;51.360;7.340;2022-10-31T03:32:38;17.48;;;6.32;;
8036;SDS011;4061;51.360;7.340;2022-10-31T03:35:08;11.00;;;5.60;;
8036;SDS011;4061;51.360;7.340;2022-10-31T03:37:36;26.95;;;5.75;;
8036;SDS011;4061;51.360;7.340;2022-10-31T03:40:05;10.45;;;5.22;;
8036;SDS011;4061;51.360;7.340;2022-10-31T03:42:36;12.38;;;5.97;;
8036;SDS011;4061;51.360;7.340;2022-10-31T03:45:05;14.73;;;6.47;;
8036;SDS011;4061;51.360;7.340;2022-10-31T03:47:33;13.10;;;4.88;;
8036;SDS011;4061;51.360;7.340;2022-10-31T03:50:00;8.88;;;5.25;;
8036;SDS011;4061;51.360;7.340;2022-10-31T03:52:28;10.98;;;4.95;;
8036;SDS011;4061;51.360;7.340;2022-10-31T03:55:02;8.02;;;4.18;;
8036;SDS011;4061;51.360;7.340;2022-10-31T03:57:32;14.68;;;4.82;;
8036;SDS011;4061;51.360;7.340;2022-10-31T04:00:03;7.85;;;4.70;;
8036;SDS011;4061;51.360;7.340;2022-10-31T04:02:31;17.27;;;5.95;;
8036;SDS011;4061;51.360;7.340;2022-10-31T04:04:59;12.05;;;5.60;;
8036;SDS011;4061;51.360;7.340;2022-10-31T04:07:27;12.88;;;5.65;;
8036;SDS011;4061;51.360;7.340;2022-10-31T04:09:55;13.45;;;5.28;;
8036;SDS011;4061;51.360;7.340;2022-10-31T04:12:24;14.48;;;5.22;;
8036;SDS011;4061;51.360;7.340;2022-10-31T04:14:52;12.80;;;5.82;;
8036;SDS011;4061;51.360;7.340;2022-10-31T04:17:20;9.40;;;4.80;;
8036;SDS011;4061;51.360;7.340;2022-10-31T04:19:48;11.70;;;5.47;;
8036;SDS011;4061;51.360;7.340;2022-10-31T04:22:15;15.57;;;6.63;;
8036;SDS011;4061;51.360;7.340;2022-10-31T04:24:42;13.75;;;6.60;;
8036;SDS011;4061;51.360;7.340;2022-10-31T04:27:09;16.70;;;6.97;;
8036;SDS011;4061;51.360;7.340;2022-10-31T04:29:39;16.40;;;7.72;;
8036;SDS011;4061;51.360;7.340;2022-10-31T04:32:06;17.80;;;7.63;;
8036;SDS011;4061;51.360;7.340;2022-10-31T04:34:33;11.52;;;6.97;;
8036;SDS011;4061;51.360;7.340;2022-10-31T04:37:00;17.90;;;7.60;;
8036;SDS011;4061;51.360;7.340;2022-10-31T04:39:27;17.55;;;6.13;;
8036;SDS011;4061;51.360;7.340;2022-10-31T04:41:54;16.52;;;6.55;;
8036;SDS011;4061;51.360;7.340;2022-10-31T04:44:21;19.67;;;7.20;;
8036;SDS011;4061;51.360;7.340;2022-10-31T04:46:50;14.13;;;5.78;;
8036;SDS011;4061;51.360;7.340;2022-10-31T04:49:17;12.73;;;5.45;;
8036;SDS011;4061;51.360;7.340;2022-10-31T04:51:44;8.95;;;5.10;;
8036;SDS011;4061;51.360;7.340;2022-10-31T04:54:11;9.80;;;5.22;;
8036;SDS011;4061;51.360;7.340;2022-10-31T04:56:38;13.48;;;6.07;;
8036;SDS011;4061;51.360;7.340;2022-10-31T04:59:05;16.63;;;5.93;;
8036;SDS011;4061;51.360;7.340;2022-10-31T05:01:33;12.38;;;6.15;;
8036;SDS011;4061;51.360;7.340;2022-10-31T05:04:01;18.40;;;7.15;;
8036;SDS011;4061;51.360;7.340;2022-10-31T05:06:28;21.35;;;8.07;;
8036;SDS011;4061;51.360;7.340;2022-10-31T05:08:55;26.17;;;9.45;;
8036;SDS011;4061;51.360;7.340;2022-10-31T05:11:22;23.15;;;9.30;;
8036;SDS011;4061;51.360;7.340;2022-10-31T05:13:50;26.73;;;10.43;;
8036;SDS011;4061;51.360;7.340;2022-10-31T05:16:17;27.35;;;10.02;;
8036;SDS011;4061;51.360;7.340;2022-10-31T05:18:44;21.35;;;8.20;;
8036;SDS011;4061;51.360;7.340;2022-10-31T05:21:12;17.65;;;6.95;;
8036;SDS011;4061;51.360;7.340;2022-10-31T05:23:39;15.23;;;6.85;;
8036;SDS011;4061;51.360;7.340;2022-10-31T05:26:07;15.32;;;6.85;;
8036;SDS011;4061;51.360;7.340;2022-10-31T05:28:34;19.40;;;8.52;;
8036;SDS011;4061;51.360;7.340;2022-10-31T05:31:01;22.30;;;9.80;;
8036;SDS011;4061;51.360;7.340;2022-10-31T05:33:28;34.20;;;9.32;;
8036;SDS011;4061;51.360;7.340;2022-10-31T05:35:55;24.60;;;10.18;;
8036;SDS011;4061;51.360;7.340;2022-10-31T05:38:24;31.23;;;11.30;;
8036;SDS011;4061;51.360;7.340;2022-10-31T05:40:53;24.27;;;8.52;;
8036;SDS011;4061;51.360;7.340;2022-10-31T05:43:22;22.23;;;9.32;;
8036;SDS011;4061;51.360;7.340;2022-10-31T05:45:51;28.45;;;8.90;;
8036;SDS011;4061;51.360;7.340;2022-10-31T05:48:18;22.13;;;9.38;;
8036;SDS011;4061;51.360;7.340;2022-10-31T05:50:46;34.03;;;12.45;;
8036;SDS011;4061;51.360;7.340;2022-10-31T05:53:14;31.38;;;11.57;;
8036;SDS011;4061;51.360;7.340;2022-10-31T05:55:42;37.90;;;11.73;;
8036;SDS011;4061;51.360;7.340;2022-10-31T05:58:10;33.47;;;11.40;;
8036;SDS011;4061;51.360;7.340;2022-10-31T06:00:37;26.92;;;10.07;;
8036;SDS011;4061;51.360;7.340;2022-10-31T06:03:06;28.90;;;10.45;;
8036;SDS011;4061;51.360;7.340;2022-10-31T06:05:33;19.85;;;9.55;;
8036;SDS011;4061;51.360;7.340;2022-10-31T06:08:01;24.23;;;9.20;;
8036;SDS011;4061;51.360;7.340;2022-10-31T06:10:28;19.17;;;9.07;;
8036;SDS011;4061;51.360;7.340;2022-10-31T06:12:56;20.38;;;8.98;;
8036;SDS011;4061;51.360;7.340;2022-10-31T06:15:23;18.45;;;8.75;;
8036;SDS011;4061;51.360;7.340;2022-10-31T06:17:57;22.33;;;9.52;;
8036;SDS011;4061;51.360;7.340;2022-10-31T06:20:24;17.33;;;8.07;;
8036;SDS011;4061;51.360;7.340;2022-10-31T06:22:51;26.77;;;10.50;;
8036;SDS011;4061;51.360;7.340;2022-10-31T06:25:19;21.88;;;9.32;;
8036;SDS011;4061;51.360;7.340;2022-10-31T06:27:46;21.88;;;9.15;;
8036;SDS011;4061;51.360;7.340;2022-10-31T06:30:14;23.25;;;9.10;;
8036;SDS011;4061;51.360;7.340;2022-10-31T06:32:41;25.33;;;8.20;;
8036;SDS011;4061;51.360;7.340;2022-10-31T06:35:09;17.92;;;7.93;;
8036;SDS011;4061;51.360;7.340;2022-10-31T06:37:36;14.85;;;7.55;;
8036;SDS011;4061;51.360;7.340;2022-10-31T06:40:04;34.85;;;8.30;;
8036;SDS011;4061;51.360;7.340;2022-10-31T06:42:31;15.60;;;7.53;;
8036;SDS011;4061;51.360;7.340;2022-10-31T06:44:58;13.85;;;6.28;;
8036;SDS011;4061;51.360;7.340;2022-10-31T06:47:27;14.10;;;6.03;;
8036;SDS011;4061;51.360;7.340;2022-10-31T06:49:54;16.73;;;6.10;;
8036;SDS011;4061;51.360;7.340;2022-10-31T06:52:21;11.77;;;5.70;;
8036;SDS011;4061;51.360;7.340;2022-10-31T06:54:49;9.90;;;5.95;;
8036;SDS011;4061;51.360;7.340;2022-10-31T06:57:16;16.13;;;7.30;;
8036;SDS011;4061;51.360;7.340;2022-10-31T06:59:43;15.43;;;6.90;;
8036;SDS011;4061;51.360;7.340;2022-10-31T07:02:10;17.23;;;6.97;;
8036;SDS011;4061;51.360;7.340;2022-10-31T07:04:39;18.02;;;6.82;;
8036;SDS011;4061;51.360;7.340;2022-10-31T07:07:06;14.77;;;7.05;;
8036;SDS011;4061;51.360;7.340;2022-10-31T07:09:33;22.90;;;8.65;;
8036;SDS011;4061;51.360;7.340;2022-10-31T07:12:01;28.00;;;10.90;;
8036;SDS011;4061;51.360;7.340;2022-10-31T07:14:28;27.92;;;10.57;;
8036;SDS011;4061;51.360;7.340;2022-10-31T07:16:55;25.50;;;11.15;;
8036;SDS011;4061;51.360;7.340;2022-10-31T07:19:22;15.90;;;7.10;;
8036;SDS011;4061;51.360;7.340;2022-10-31T07:21:50;16.13;;;7.50;;
8036;SDS011;4061;51.360;7.340;2022-10-31T07:24:17;16.10;;;7.72;;
8036;SDS011;4061;51.360;7.340;2022-10-31T07:26:45;18.10;;;7.50;;
8036;SDS011;4061;51.360;7.340;2022-10-31T07:29:12;21.10;;;7.80;;
8036;SDS011;4061;51.360;7.340;2022-10-31T07:31:39;16.38;;;7.47;;
8036;SDS011;4061;51.360;7.340;2022-10-31T07:34:07;21.42;;;8.60;;
8036;SDS011;4061;51.360;7.340;2022-10-31T07:36:34;14.52;;;6.72;;
8036;SDS011;4061;51.360;7.340;2022-10-31T07:39:02;14.57;;;6.60;;
8036;SDS011;4061;51.360;7.340;2022-10-31T07:41:29;25.00;;;8.57;;
8036;SDS011;4061;51.360;7.340;2022-10-31T07:43:57;15.45;;;6.75;;
8036;SDS011;4061;51.360;7.340;2022-10-31T07:46:24;17.85;;;6.93;;
8036;SDS011;4061;51.360;7.340;2022-10-31T07:48:51;12.10;;;7.13;;
8036;SDS011;4061;51.360;7.340;2022-10-31T07:51:18;14.57;;;6.82;;
8036;SDS011;4061;51.360;7.340;2022-10-31T07:53:45;18.15;;;7.90;;
8036;SDS011;4061;51.360;7.340;2022-10-31T07:56:13;17.60;;;8.50;;
8036;SDS011;4061;51.360;7.340;2022-10-31T07:58:41;10.95;;;6.97;;
8036;SDS011;4061;51.360;7.340;2022-10-31T08:01:08;15.13;;;6.78;;
8036;SDS011;4061;51.360;7.340;2022-10-31T08:03:35;15.30;;;7.35;;
8036;SDS011;4061;51.360;7.340;2022-10-31T08:06:02;18.48;;;6.70;;
8036;SDS011;4061;51.360;7.340;2022-10-31T08:08:29;15.20;;;7.78;;
8036;SDS011;4061;51.360;7.340;2022-10-31T08:10:57;16.48;;;7.03;;
8036;SDS011;4061;51.360;7.340;2022-10-31T08:13:26;20.00;;;7.22;;
8036;SDS011;4061;51.360;7.340;2022-10-31T08:15:53;21.63;;;8.05;;
8036;SDS011;4061;51.360;7.340;2022-10-31T08:18:20;22.20;;;7.85;;
8036;SDS011;4061;51.360;7.340;2022-10-31T08:20:48;17.70;;;6.57;;
8036;SDS011;4061;51.360;7.340;2022-10-31T08:23:16;20.20;;;7.40;;
8036;SDS011;4061;51.360;7.340;2022-10-31T08:25:43;23.67;;;7.07;;
8036;SDS011;4061;51.360;7.340;2022-10-31T08:28:11;15.25;;;6.53;;
8036;SDS011;4061;51.360;7.340;2022-10-31T08:30:40;18.73;;;7.30;;
8036;SDS011;4061;51.360;7.340;2022-10-31T08:33:09;17.33;;;7.43;;
8036;SDS011;4061;51.360;7.340;2022-10-31T08:35:36;18.27;;;6.88;;
8036;SDS011;4061;51.360;7.340;2022-10-31T08:38:03;21.33;;;8.00;;
8036;SDS011;4061;51.360;7.340;2022-10-31T08:40:32;17.25;;;7.63;;
8036;SDS011;4061;51.360;7.340;2022-10-31T08:43:00;23.23;;;8.52;;
8036;SDS011;4061;51.360;7.340;2022-10-31T08:45:27;12.20;;;6.65;;
8036;SDS011;4061;51.360;7.340;2022-10-31T08:47:59;19.55;;;7.40;;
8036;SDS011;4061;51.360;7.340;2022-10-31T08:50:27;17.65;;;6.85;;
8036;SDS011;4061;51.360;7.340;2022-10-31T08:52:59;18.25;;;6.05;;
8036;SDS011;4061;51.360;7.340;2022-10-31T08:55:26;15.23;;;7.90;;
8036;SDS011;4061;51.360;7.340;2022-10-31T08:57:54;19.00;;;7.55;;
8036;SDS011;4061;51.360;7.340;2022-10-31T09:00:22;17.17;;;7.22;;
8036;SDS011;4061;51.360;7.340;2022-10-31T09:02:54;26.10;;;7.55;;
8036;SDS011;4061;51.360;7.340;2022-10-31T09:05:22;21.42;;;7.57;;
8036;SDS011;4061;51.360;7.340;2022-10-31T09:07:49;20.05;;;8.38;;
8036;SDS011;4061;51.360;7.340;2022-10-31T09:10:16;11.95;;;5.70;;
8036;SDS011;4061;51.360;7.340;2022-10-31T09:12:44;11.43;;;6.70;;
8036;SDS011;4061;51.360;7.340;2022-10-31T09:15:11;13.70;;;6.38;;
8036;SDS011;4061;51.360;7.340;2022-10-31T09:17:38;14.85;;;6.82;;
8036;SDS011;4061;51.360;7.340;2022-10-31T09:20:05;14.95;;;6.55;;
8036;SDS011;4061;51.360;7.340;2022-10-31T09:22:34;18.08;;;6.10;;
8036;SDS011;4061;51.360;7.340;2022-10-31T09:25:01;16.00;;;6.40;;
8036;SDS011;4061;51.360;7.340;2022-10-31T09:27:28;15.68;;;6.55;;
8036;SDS011;4061;51.360;7.340;2022-10-31T09:29:55;19.27;;;6.88;;
8036;SDS011;4061;51.360;7.340;2022-10-31T09:32:22;16.27;;;7.40;;
8036;SDS011;4061;51.360;7.340;2022-10-31T09:34:50;17.13;;;7.70;;
8036;SDS011;4061;51.360;7.340;2022-10-31T09:37:17;18.77;;;7.93;;
8036;SDS011;4061;51.360;7.340;2022-10-31T09:39:45;20.40;;;8.23;;
8036;SDS011;4061;51.360;7.340;2022-10-31T09:42:21;17.45;;;8.77;;
8036;SDS011;4061;51.360;7.340;2022-10-31T09:44:56;15.40;;;7.70;;
8036;SDS011;4061;51.360;7.340;2022-10-31T09:47:37;25.25;;;7.22;;
8036;SDS011;4061;51.360;7.340;2022-10-31T09:50:10;16.20;;;6.80;;
8036;SDS011;4061;51.360;7.340;2022-10-31T09:52:38;16.58;;;7.47;;
8036;SDS011;4061;51.360;7.340;2022-10-31T09:55:12;23.73;;;7.43;;
8036;SDS011;4061;51.360;7.340;2022-10-31T09:57:41;13.43;;;6.35;;
8036;SDS011;4061;51.360;7.340;2022-10-31T10:00:10;15.70;;;7.57;;
8036;SDS011;4061;51.360;7.340;2022-10-31T10:02:42;16.95;;;7.97;;
8036;SDS011;4061;51.360;7.340;2022-10-31T10:05:12;20.88;;;8.50;;
8036;SDS011;4061;51.360;7.340;2022-10-31T10:07:41;21.85;;;7.88;;
8036;SDS011;4061;51.360;7.340;2022-10-31T10:10:17;17.00;;;8.23;;
8036;SDS011;4061;51.360;7.340;2022-10-31T10:12:49;27.70;;;8.60;;
8036;SDS011;4061;51.360;7.340;2022-10-31T10:15:27;17.02;;;8.05;;
8036;SDS011;4061;51.360;7.340;2022-10-31T10:17:59;20.23;;;9.10;;
8036;SDS011;4061;51.360;7.340;2022-10-31T10:20:31;21.38;;;7.82;;
8036;SDS011;4061;51.360;7.340;2022-10-31T10:23:08;22.65;;;7.93;;
8036;SDS011;4061;51.360;7.340;2022-10-31T10:25:39;20.98;;;7.65;;
8036;SDS011;4061;51.360;7.340;2022-10-31T10:28:13;15.75;;;6.90;;
8036;SDS011;4061;51.360;7.340;2022-10-31T10:30:42;17.88;;;7.60;;
8036;SDS011;4061;51.360;7.340;2022-10-31T10:33:12;20.35;;;7.35;;
8036;SDS011;4061;51.360;7.340;2022-10-31T10:35:41;22.67;;;7.50;;
8036;SDS011;4061;51.360;7.340;2022-10-31T10:38:12;16.67;;;7.72;;
8036;SDS011;4061;51.360;7.340;2022-10-31T10:40:42;16.48;;;6.90;;
8036;SDS011;4061;51.360;7.340;2022-10-31T10:43:18;14.63;;;6.85;;
8036;SDS011;4061;51.360;7.340;2022-10-31T10:45:47;17.67;;;7.45;;
8036;SDS011;4061;51.360;7.340;2022-10-31T10:48:36;16.25;;;7.25;;
8036;SDS011;4061;51.360;7.340;2022-10-31T10:51:07;13.00;;;6.90;;
8036;SDS011;4061;51.360;7.340;2022-10-31T10:53:39;13.80;;;6.22;;
8036;SDS011;4061;51.360;7.340;2022-10-31T10:56:29;13.40;;;6.70;;
8036;SDS011;4061;51.360;7.340;2022-10-31T10:58:57;19.83;;;7.07;;
8036;SDS011;4061;51.360;7.340;2022-10-31T11:01:24;25.48;;;7.07;;
8036;SDS011;4061;51.360;7.340;2022-10-31T11:03:52;17.23;;;7.63;;
8036;SDS011;4061;51.360;7.340;2022-10-31T11:06:19;24.50;;;7.60;;
8036;SDS011;4061;51.360;7.340;2022-10-31T11:08:50;17.85;;;6.50;;
8036;SDS011;4061;51.360;7.340;2022-10-31T11:11:22;17.27;;;5.90;;
8036;SDS011;4061;51.360;7.340;2022-10-31T11:13:52;9.60;;;5.18;;
8036;SDS011;4061;51.360;7.340;2022-10-31T11:16:27;19.17;;;6.50;;
8036;SDS011;4061;51.360;7.340;2022-10-31T11:18:54;21.10;;;6.90;;
8036;SDS011;4061;51.360;7.340;2022-10-31T11:21:32;20.17;;;6.20;;
8036;SDS011;4061;51.360;7.340;2022-10-31T11:24:03;17.13;;;6.93;;
8036;SDS011;4061;51.360;7.340;2022-10-31T11:26:30;14.68;;;5.85;;
8036;SDS011;4061;51.360;7.340;2022-10-31T11:29:01;11.77;;;6.05;;
8036;SDS011;4061;51.360;7.340;2022-10-31T11:31:28;16.75;;;5.82;;
8036;SDS011;4061;51.360;7.340;2022-10-31T11:33:58;19.60;;;5.90;;
8036;SDS011;4061;51.360;7.340;2022-10-31T11:36:27;19.70;;;5.28;;
8036;SDS011;4061;51.360;7.340;2022-10-31T11:38:54;14.07;;;6.13;;
8036;SDS011;4061;51.360;7.340;2022-10-31T11:41:24;13.05;;;4.47;;
8036;SDS011;4061;51.360;7.340;2022-10-31T11:43:53;10.88;;;4.57;;
8036;SDS011;4061;51.360;7.340;2022-10-31T11:46:24;11.27;;;5.25;;
8036;SDS011;4061;51.360;7.340;2022-10-31T11:48:54;16.33;;;5.30;;
8036;SDS011;4061;51.360;7.340;2022-10-31T11:51:22;13.90;;;4.35;;
8036;SDS011;4061;51.360;7.340;2022-10-31T11:53:51;11.55;;;5.35;;
8036;SDS011;4061;51.360;7.340;2022-10-31T11:56:18;14.50;;;4.32;;
8036;SDS011;4061;51.360;7.340;2022-10-31T11:58:54;17.88;;;4.65;;
8036;SDS011;4061;51.360;7.340;2022-10-31T12:01:24;12.23;;;4.57;;
8036;SDS011;4061;51.360;7.340;2022-10-31T12:03:54;7.28;;;3.72;;
8036;SDS011;4061;51.360;7.340;2022-10-31T12:06:24;8.50;;;3.83;;
8036;SDS011;4061;51.360;7.340;2022-10-31T12:08:55;12.57;;;3.35;;
8036;SDS011;4061;51.360;7.340;2022-10-31T12:11:35;6.72;;;2.78;;
8036;SDS011;4061;51.360;7.340;2022-10-31T12:14:16;10.52;;;2.83;;
8036;SDS011;4061;51.360;7.340;2022-10-31T12:16:48;8.98;;;2.40;;
8036;SDS011;4061;51.360;7.340;2022-10-31T12:19:20;17.58;;;3.15;;
8036;SDS011;4061;51.360;7.340;2022-10-31T12:21:53;9.45;;;2.60;;
8036;SDS011;4061;51.360;7.340;2022-10-31T12:24:26;8.85;;;2.20;;
8036;SDS011;4061;51.360;7.340;2022-10-31T12:26:59;10.43;;;3.58;;
8036;SDS011;4061;51.360;7.340;2022-10-31T12:29:37;11.95;;;2.58;;
8036;SDS011;4061;51.360;7.340;2022-10-31T12:32:15;6.47;;;2.20;;
8036;SDS011;4061;51.360;7.340;2022-10-31T12:34:49;13.55;;;2.28;;
8036;SDS011;4061;51.360;7.340;2022-10-31T12:37:23;5.47;;;1.90;;
8036;SDS011;4061;51.360;7.340;2022-10-31T12:39:54;8.95;;;2.55;;
8036;SDS011;4061;51.360;7.340;2022-10-31T12:42:27;6.18;;;2.40;;
8036;SDS011;4061;51.360;7.340;2022-10-31T12:45:00;3.55;;;2.08;;
8036;SDS011;4061;51.360;7.340;2022-10-31T12:47:35;11.88;;;2.55;;
8036;SDS011;4061;51.360;7.340;2022-10-31T12:50:10;6.90;;;2.78;;
8036;SDS011;4061;51.360;7.340;2022-10-31T12:52:43;13.38;;;2.40;;
8036;SDS011;4061;51.360;7.340;2022-10-31T12:55:16;11.80;;;2.50;;
8036;SDS011;4061;51.360;7.340;2022-10-31T12:57:47;13.55;;;2.47;;
8036;SDS011;4061;51.360;7.340;2022-10-31T13:00:16;12.10;;;2.60;;
8036;SDS011;4061;51.360;7.340;2022-10-31T13:02:46;7.75;;;2.53;;
8036;SDS011;4061;51.360;7.340;2022-10-31T13:05:17;11.07;;;2.08;;
8036;SDS011;4061;51.360;7.340;2022-10-31T13:07:47;5.00;;;2.30;;
8036;SDS011;4061;51.360;7.340;2022-10-31T13:10:16;11.00;;;2.65;;
8036;SDS011;4061;51.360;7.340;2022-10-31T13:12:45;8.27;;;2.10;;
8036;SDS011;4061;51.360;7.340;2022-10-31T13:15:16;4.53;;;2.28;;
8036;SDS011;4061;51.360;7.340;2022-10-31T13:17:46;5.38;;;2.08;;
8036;SDS011;4061;51.360;7.340;2022-10-31T13:20:16;4.25;;;2.15;;
8036;SDS011;4061;51.360;7.340;2022-10-31T13:22:45;12.18;;;2.55;;
8036;SDS011;4061;51.360;7.340;2022-10-31T13:25:14;7.22;;;2.40;;
8036;SDS011;4061;51.360;7.340;2022-10-31T13:27:45;6.78;;;2.63;;
8036;SDS011;4061;51.360;7.340;2022-10-31T13:30:16;3.35;;;2.35;;
8036;SDS011;4061;51.360;7.340;2022-10-31T13:32:46;4.10;;;2.55;;
8036;SDS011;4061;51.360;7.340;2022-10-31T13:35:16;6.38;;;2.28;;
8036;SDS011;4061;51.360;7.340;2022-10-31T13:37:46;10.93;;;2.63;;
8036;SDS011;4061;51.360;7.340;2022-10-31T13:40:18;6.28;;;3.15;;
8036;SDS011;4061;51.360;7.340;2022-10-31T13:42:51;7.25;;;2.50;;
8036;SDS011;4061;51.360;7.340;2022-10-31T13:45:20;9.23;;;2.58;;
8036;SDS011;4061;51.360;7.340;2022-10-31T13:47:56;7.57;;;2.72;;
8036;SDS011;4061;51.360;7.340;2022-10-31T13:50:25;10.07;;;3.10;;
8036;SDS011;4061;51.360;7.340;2022-10-31T13:53:02;6.57;;;2.97;;
8036;SDS011;4061;51.360;7.340;2022-10-31T13:55:37;9.45;;;2.88;;
8036;SDS011;4061;51.360;7.340;2022-10-31T13:58:17;8.55;;;2.92;;
8036;SDS011;4061;51.360;7.340;2022-10-31T14:00:46;6.85;;;3.30;;
8036;SDS011;4061;51.360;7.340;2022-10-31T14:03:17;14.70;;;3.05;;
8036;SDS011;4061;51.360;7.340;2022-10-31T14:05:51;12.60;;;2.67;;
8036;SDS011;4061;51.360;7.340;2022-10-31T14:08:19;9.18;;;2.30;;
8036;SDS011;4061;51.360;7.340;2022-10-31T14:10:48;9.45;;;3.05;;
8036;SDS011;4061;51.360;7.340;2022-10-31T14:13:18;16.10;;;2.78;;
8036;SDS011;4061;51.360;7.340;2022-10-31T14:15:52;11.50;;;2.90;;
8036;SDS011;4061;51.360;7.340;2022-10-31T14:18:21;10.88;;;3.17;;
8036;SDS011;4061;51.360;7.340;2022-10-31T14:20:49;6.88;;;2.83;;
8036;SDS011;4061;51.360;7.340;2022-10-31T14:23:32;5.15;;;2.67;;
8036;SDS011;4061;51.360;7.340;2022-10-31T14:26:07;10.73;;;2.83;;
8036;SDS011;4061;51.360;7.340;2022-10-31T14:28:43;10.25;;;3.95;;
8036;SDS011;4061;51.360;7.340;2022-10-31T14:31:21;10.07;;;2.53;;
8036;SDS011;4061;51.360;7.340;2022-10-31T14:33:54;13.70;;;2.95;;
8036;SDS011;4061;51.360;7.340;2022-10-31T14:36:23;5.30;;;3.00;;
8036;SDS011;4061;51.360;7.340;2022-10-31T14:38:52;13.20;;;3.03;;
8036;SDS011;4061;51.360;7.340;2022-10-31T14:41:25;8.93;;;2.72;;
8036;SDS011;4061;51.360;7.340;2022-10-31T14:44:10;9.27;;;2.85;;
8036;SDS011;4061;51.360;7.340;2022-10-31T14:46:43;5.65;;;2.85;;
8036;SDS011;4061;51.360;7.340;2022-10-31T14:49:19;6.38;;;2.95;;
8036;SDS011;4061;51.360;7.340;2022-10-31T14:51:48;4.13;;;2.65;;
8036;SDS011;4061;51.360;7.340;2022-10-31T14:54:17;6.70;;;2.50;;
8036;SDS011;4061;51.360;7.340;2022-10-31T14:56:47;6.30;;;3.00;;
8036;SDS011;4061;51.360;7.340;2022-10-31T14:59:16;6.22;;;2.70;;
8036;SDS011;4061;51.360;7.340;2022-10-31T15:01:50;4.63;;;2.20;;
8036;SDS011;4061;51.360;7.340;2022-10-31T15:04:20;8.20;;;3.40;;
8036;SDS011;4061;51.360;7.340;2022-10-31T15:06:50;6.05;;;2.55;;
8036;SDS011;4061;51.360;7.340;2022-10-31T15:09:21;12.90;;;2.95;;
8036;SDS011;4061;51.360;7.340;2022-10-31T15:11:48;6.57;;;2.65;;
8036;SDS011;4061;51.360;7.340;2022-10-31T15:14:21;17.98;;;2.83;;
8036;SDS011;4061;51.360;7.340;2022-10-31T15:16:49;8.65;;;2.50;;
8036;SDS011;4061;51.360;7.340;2022-10-31T15:19:16;7.78;;;2.60;;
8036;SDS011;4061;51.360;7.340;2022-10-31T15:21:49;9.27;;;2.22;;
8036;SDS011;4061;51.360;7.340;2022-10-31T15:24:17;6.32;;;2.40;;